Attleboro, Massachusetts
Current Conditions -  °F | °C
As of 3:15 PM on Thursday 30 Oct 2014 (Local Time) from KSFZ Reporting Station
Broken Clouds Broken Clouds  
Wind Chill: 55°   Ceiling: 6000
Heat Index: 55°   Visibility: 10mi
Dew Point: 30°   Wind: 8mph
Humidity: 38%   Direction: 280°W
Pressure: 29.91"   Gusts: NA
Location:  41.95°N, 71.28°W
Report Text: KSFZ 301915Z 28007KT 10SM BKN060 13/M01 A2991 RMK AO1
Loading
Personal Weather Stations






























Interactive Weather Map New forecast layout! Learn more

10-Day Weather Forecast

Advertisements
Track Severe Weather on mobile